createdAt,value
2023-05-21T00:00:57.027Z,15.00
2023-05-21T00:03:28.552Z,15.00
2023-05-21T00:06:01.800Z,15.00
2023-05-21T00:08:32.078Z,15.00
2023-05-21T00:11:02.136Z,15.00
2023-05-21T00:13:32.228Z,15.00
2023-05-21T00:16:02.358Z,15.00
2023-05-21T00:18:32.570Z,14.90
2023-05-21T00:21:05.270Z,14.90
2023-05-21T00:23:36.758Z,14.90
2023-05-21T00:26:06.818Z,14.90
2023-05-21T00:28:36.849Z,14.80
2023-05-21T00:31:06.950Z,14.80
2023-05-21T00:33:36.979Z,14.80
2023-05-21T00:36:10.557Z,14.80
2023-05-21T00:38:43.688Z,14.90
2023-05-21T00:41:14.253Z,14.80
2023-05-21T00:43:44.833Z,14.80
2023-05-21T00:46:23.463Z,14.80
2023-05-21T00:48:54.235Z,14.80
2023-05-21T00:51:30.472Z,14.80
2023-05-21T00:54:01.217Z,14.70
2023-05-21T00:56:31.507Z,14.70
2023-05-21T00:59:05.745Z,14.70
2023-05-21T01:01:37.223Z,14.70
2023-05-21T01:04:07.895Z,14.70
2023-05-21T01:06:40.701Z,14.70
2023-05-21T01:09:10.857Z,14.60
2023-05-21T01:11:43.833Z,14.60
2023-05-21T01:14:15.511Z,14.60
2023-05-21T01:16:49.581Z,14.60
2023-05-21T01:19:23.122Z,14.60
2023-05-21T01:21:59.786Z,14.60
2023-05-21T01:24:32.625Z,14.50
2023-05-21T01:27:07.806Z,14.50
2023-05-21T01:29:38.046Z,14.50
2023-05-21T01:32:14.456Z,14.50
2023-05-21T01:34:51.211Z,14.50
2023-05-21T01:37:28.644Z,14.50
2023-05-21T01:40:12.393Z,14.50
2023-05-21T01:42:46.254Z,14.50
2023-05-21T01:45:19.316Z,14.50
2023-05-21T01:47:53.470Z,14.50
2023-05-21T01:50:26.012Z,14.50
2023-05-21T01:52:58.674Z,14.50
2023-05-21T01:55:31.500Z,14.50
2023-05-21T01:58:02.949Z,14.40
2023-05-21T02:00:34.797Z,14.50
2023-05-21T02:03:04.995Z,14.50
2023-05-21T02:05:35.524Z,14.50
2023-05-21T02:08:08.545Z,14.50
2023-05-21T02:10:41.496Z,14.50
2023-05-21T02:13:11.606Z,14.50
2023-05-21T02:15:41.734Z,14.50
2023-05-21T02:18:11.916Z,14.50
2023-05-21T02:20:42.063Z,14.50
2023-05-21T02:23:12.431Z,14.50
2023-05-21T02:25:45.123Z,14.50
2023-05-21T02:28:16.097Z,14.50
2023-05-21T02:30:46.318Z,14.40
2023-05-21T02:33:20.406Z,14.50
2023-05-21T02:35:50.656Z,14.40
2023-05-21T02:38:23.349Z,14.50
2023-05-21T02:40:56.344Z,14.40
2023-05-21T02:43:26.534Z,14.40
2023-05-21T02:45:56.857Z,14.40
2023-05-21T02:48:27.022Z,14.40
2023-05-21T02:50:57.266Z,14.40
2023-05-21T02:53:27.470Z,14.40
2023-05-21T02:56:00.363Z,14.40
2023-05-21T02:58:30.556Z,14.30
2023-05-21T03:01:00.743Z,14.30
2023-05-21T03:03:32.142Z,14.30
2023-05-21T03:06:02.439Z,14.30
2023-05-21T03:08:32.625Z,14.30
2023-05-21T03:11:05.377Z,14.30
2023-05-21T03:13:35.633Z,14.30
2023-05-21T03:16:05.959Z,14.30
2023-05-21T03:18:36.216Z,14.30
2023-05-21T03:21:06.687Z,14.20
2023-05-21T03:23:37.226Z,14.30
2023-05-21T03:26:09.938Z,14.30
2023-05-21T03:28:40.078Z,14.30
2023-05-21T03:31:10.253Z,14.30
2023-05-21T03:33:40.405Z,14.30
2023-05-21T03:36:10.907Z,14.30
2023-05-21T03:38:41.084Z,14.30
2023-05-21T03:41:14.500Z,14.30
2023-05-21T03:43:44.672Z,14.40
2023-05-21T03:46:14.816Z,14.40
2023-05-21T03:48:45.003Z,14.40
2023-05-21T03:51:16.253Z,14.40
2023-05-21T03:53:46.445Z,14.40
2023-05-21T03:56:19.369Z,14.40
2023-05-21T03:58:49.720Z,14.40
2023-05-21T04:01:19.958Z,14.50
2023-05-21T04:03:50.187Z,14.50
2023-05-21T04:06:20.725Z,14.50
2023-05-21T04:08:50.898Z,14.60
2023-05-21T04:11:23.819Z,14.60
2023-05-21T04:13:53.988Z,14.60
2023-05-21T04:16:24.859Z,14.60
2023-05-21T04:18:55.661Z,14.60
2023-05-21T04:21:25.789Z,14.70
2023-05-21T04:23:57.740Z,14.70
2023-05-21T04:26:34.039Z,14.80
2023-05-21T04:29:05.166Z,14.90
2023-05-21T04:31:35.584Z,15.00
2023-05-21T04:34:06.521Z,15.10
2023-05-21T04:36:36.597Z,15.10
2023-05-21T04:39:07.461Z,15.20
2023-05-21T04:41:40.117Z,15.30
2023-05-21T04:44:11.462Z,15.30
2023-05-21T04:46:41.892Z,15.50
2023-05-21T04:49:12.882Z,15.60
2023-05-21T04:51:42.930Z,15.70
2023-05-21T04:54:13.042Z,15.80
2023-05-21T04:56:47.539Z,16.00
2023-05-21T04:59:18.797Z,16.10
2023-05-21T05:01:49.250Z,16.20
2023-05-21T05:04:19.386Z,16.40
2023-05-21T05:06:49.599Z,16.40
2023-05-21T05:09:21.691Z,16.50
2023-05-21T05:11:54.473Z,16.60
2023-05-21T05:14:24.535Z,16.70
2023-05-21T05:16:54.704Z,16.80
2023-05-21T05:19:24.929Z,16.90
2023-05-21T05:21:55.162Z,17.00
2023-05-21T05:24:25.258Z,17.10
2023-05-21T05:26:57.938Z,17.20
2023-05-21T05:29:28.005Z,17.20
2023-05-21T05:31:58.084Z,17.30
2023-05-21T05:34:28.411Z,17.30
2023-05-21T05:36:59.068Z,17.30
2023-05-21T05:39:29.139Z,17.30
2023-05-21T05:42:02.083Z,17.40
2023-05-21T05:44:32.150Z,17.50
2023-05-21T05:47:02.212Z,17.50
2023-05-21T05:49:32.310Z,17.50
2023-05-21T05:52:03.247Z,17.60
2023-05-21T05:54:33.328Z,17.60
2023-05-21T05:57:06.068Z,17.60
2023-05-21T05:59:36.633Z,17.70
2023-05-21T06:02:07.095Z,17.70
2023-05-21T06:04:37.186Z,17.90
2023-05-21T06:07:07.938Z,18.00
2023-05-21T06:09:38.996Z,17.90
2023-05-21T06:12:14.738Z,17.90
2023-05-21T06:14:46.267Z,18.00
2023-05-21T06:17:16.505Z,18.00
2023-05-21T06:19:46.706Z,18.00
2023-05-21T06:22:17.017Z,18.10
2023-05-21T06:24:47.292Z,18.20
2023-05-21T06:27:20.060Z,18.30
2023-05-21T06:29:50.369Z,18.30
2023-05-21T06:32:21.659Z,18.30
2023-05-21T06:34:51.965Z,18.40
2023-05-21T06:37:25.853Z,18.50
2023-05-21T06:39:56.540Z,18.40
2023-05-21T06:42:29.284Z,18.40
2023-05-21T06:44:59.461Z,18.40
2023-05-21T06:47:29.632Z,18.40
2023-05-21T06:49:59.721Z,18.40
2023-05-21T06:52:31.920Z,18.40
2023-05-21T06:55:02.041Z,18.50
2023-05-21T06:57:34.738Z,18.50
2023-05-21T07:00:05.229Z,18.50
2023-05-21T07:02:35.461Z,18.60
2023-05-21T07:05:05.651Z,18.70
2023-05-21T07:07:35.818Z,18.70
2023-05-21T07:10:06.034Z,18.80
2023-05-21T07:12:38.716Z,18.70
2023-05-21T07:15:10.578Z,18.70
2023-05-21T07:17:40.736Z,18.80
2023-05-21T07:20:12.654Z,18.80
2023-05-21T07:22:43.926Z,18.80
2023-05-21T07:25:13.998Z,18.90
2023-05-21T07:27:46.669Z,18.90
2023-05-21T07:30:18.111Z,18.90
2023-05-21T07:32:48.214Z,18.90
2023-05-21T07:35:18.565Z,18.90
2023-05-21T07:37:49.044Z,19.00
2023-05-21T07:40:19.512Z,19.00
2023-05-21T07:42:52.412Z,19.10
2023-05-21T07:45:22.904Z,19.20
2023-05-21T07:47:53.060Z,19.30
2023-05-21T07:50:23.208Z,19.40
2023-05-21T07:52:53.369Z,19.40
2023-05-21T07:55:23.920Z,19.50
2023-05-21T07:57:56.632Z,19.70
2023-05-21T08:00:27.478Z,20.00
2023-05-21T08:02:57.648Z,20.30
2023-05-21T08:05:27.764Z,20.60
2023-05-21T08:08:00.372Z,20.80
2023-05-21T08:10:30.429Z,20.80
2023-05-21T08:13:03.095Z,21.00
2023-05-21T08:15:33.152Z,21.20
2023-05-21T08:18:03.339Z,21.10
2023-05-21T08:20:33.847Z,21.40
2023-05-21T08:23:04.162Z,21.50
2023-05-21T08:25:34.521Z,21.60
2023-05-21T08:28:07.644Z,21.60
2023-05-21T08:30:37.710Z,21.70
2023-05-21T08:33:07.948Z,21.80
2023-05-21T08:35:38.269Z,21.90
2023-05-21T08:38:08.668Z,22.00
2023-05-21T08:40:38.770Z,22.00
2023-05-21T08:43:14.665Z,22.20
2023-05-21T08:45:48.952Z,22.20
2023-05-21T08:48:19.882Z,22.40
2023-05-21T08:50:50.161Z,22.40
2023-05-21T08:53:28.262Z,22.30
2023-05-21T08:56:00.181Z,22.30
2023-05-21T08:58:36.490Z,22.30
2023-05-21T09:01:07.952Z,22.50
2023-05-21T09:03:39.590Z,22.60
2023-05-21T09:06:10.829Z,22.70
2023-05-21T09:08:46.949Z,22.70
2023-05-21T09:11:18.040Z,22.60
2023-05-21T09:13:52.233Z,22.70
2023-05-21T09:16:22.583Z,22.90
2023-05-21T09:18:53.096Z,22.90
2023-05-21T09:21:27.798Z,22.90
2023-05-21T09:23:59.783Z,23.00
2023-05-21T09:26:30.175Z,23.00
2023-05-21T09:29:03.922Z,23.20
2023-05-21T09:31:34.102Z,23.30
2023-05-21T09:34:04.286Z,23.40
2023-05-21T09:36:34.881Z,23.40
2023-05-21T09:39:05.124Z,23.40
2023-05-21T09:41:37.092Z,23.60
2023-05-21T09:44:10.726Z,23.40
2023-05-21T09:46:42.595Z,23.40
2023-05-21T09:49:26.905Z,23.40
2023-05-21T09:51:59.657Z,23.40
2023-05-21T09:54:35.475Z,23.40
2023-05-21T09:57:06.027Z,23.40
2023-05-21T09:59:42.292Z,23.50
2023-05-21T10:02:22.897Z,23.50
2023-05-21T10:04:55.289Z,23.60
2023-05-21T10:07:29.061Z,23.60
2023-05-21T10:10:00.568Z,23.70
2023-05-21T10:12:33.515Z,23.90
2023-05-21T10:15:08.227Z,23.90
2023-05-21T10:17:38.522Z,24.00
2023-05-21T10:20:11.823Z,24.00
2023-05-21T10:22:43.063Z,23.90
2023-05-21T10:25:15.674Z,24.10
2023-05-21T10:27:46.158Z,24.10
2023-05-21T10:30:21.234Z,24.10
2023-05-21T10:32:52.790Z,24.20
2023-05-21T10:35:23.064Z,24.30
2023-05-21T10:37:54.999Z,24.30
2023-05-21T10:40:25.380Z,24.40
2023-05-21T10:43:16.602Z,24.50
2023-05-21T10:46:08.948Z,24.60
2023-05-21T10:49:03.635Z,24.70
2023-05-21T10:51:52.114Z,24.90
2023-05-21T10:54:58.339Z,24.90
2023-05-21T10:58:15.851Z,24.80
2023-05-21T11:00:48.941Z,24.90
2023-05-21T11:03:20.218Z,24.90
2023-05-21T11:05:57.038Z,25.10
2023-05-21T11:08:30.756Z,25.10
2023-05-21T11:11:01.442Z,25.20
2023-05-21T11:13:48.959Z,25.10
2023-05-21T11:16:23.216Z,25.20
2023-05-21T11:19:04.514Z,25.30
2023-05-21T11:21:38.077Z,25.40
2023-05-21T11:24:11.329Z,25.30
2023-05-21T11:27:07.138Z,25.30
2023-05-21T11:29:46.354Z,25.50
2023-05-21T11:32:20.853Z,25.30
2023-05-21T11:34:51.858Z,25.20
2023-05-21T11:37:34.854Z,25.20
2023-05-21T11:40:22.700Z,25.30
2023-05-21T11:42:55.032Z,25.30
2023-05-21T11:45:27.557Z,25.20
2023-05-21T11:48:00.787Z,25.20
2023-05-21T11:50:34.133Z,25.20
2023-05-21T11:53:04.457Z,25.20
2023-05-21T11:55:34.855Z,25.10
2023-05-21T11:58:06.072Z,25.10
2023-05-21T12:00:42.912Z,25.10
2023-05-21T12:03:18.268Z,25.10
2023-05-21T12:05:49.497Z,25.10
2023-05-21T12:08:25.810Z,25.20
2023-05-21T12:10:59.864Z,25.30
2023-05-21T12:13:30.698Z,25.60
2023-05-21T12:16:01.023Z,25.70
2023-05-21T12:18:33.760Z,25.70
2023-05-21T12:21:04.012Z,25.70
2023-05-21T12:23:34.462Z,25.60
2023-05-21T12:26:04.652Z,25.60
2023-05-21T12:28:35.243Z,25.60
2023-05-21T12:31:05.316Z,25.60
2023-05-21T12:33:39.976Z,25.50
2023-05-21T12:36:10.241Z,25.50
2023-05-21T12:38:41.942Z,25.60
2023-05-21T12:41:12.049Z,25.70
2023-05-21T12:43:42.178Z,25.80
2023-05-21T12:46:17.418Z,25.90
2023-05-21T12:48:57.027Z,25.80
2023-05-21T12:51:27.092Z,25.80
2023-05-21T12:53:57.145Z,25.80
2023-05-21T12:56:27.233Z,25.80
2023-05-21T12:58:57.716Z,26.00
2023-05-21T13:01:28.471Z,25.90
2023-05-21T13:04:01.316Z,25.80
2023-05-21T13:06:31.653Z,25.70
2023-05-21T13:09:01.842Z,25.90
2023-05-21T13:11:32.525Z,25.90
2023-05-21T13:14:02.602Z,25.80
2023-05-21T13:16:33.325Z,25.80
2023-05-21T13:19:06.384Z,25.80
2023-05-21T13:21:36.604Z,25.90
2023-05-21T13:24:07.620Z,25.80
2023-05-21T13:26:38.115Z,25.90
2023-05-21T13:29:08.258Z,26.00
2023-05-21T13:31:38.888Z,25.90
2023-05-21T13:34:11.604Z,26.00
2023-05-21T13:36:42.266Z,25.80
2023-05-21T13:39:12.617Z,25.80
2023-05-21T13:41:44.005Z,25.80
2023-05-21T13:44:16.563Z,25.70
2023-05-21T13:46:46.760Z,25.70
2023-05-21T13:49:19.690Z,25.70
2023-05-21T13:51:49.826Z,25.80
2023-05-21T13:54:20.029Z,25.90
2023-05-21T13:56:50.288Z,26.00
2023-05-21T13:59:20.729Z,26.10
2023-05-21T14:01:52.426Z,26.00
2023-05-21T14:04:25.285Z,26.00
2023-05-21T14:06:55.704Z,26.00
2023-05-21T14:09:27.384Z,25.90
2023-05-21T14:11:58.922Z,25.90
2023-05-21T14:14:28.986Z,26.00
2023-05-21T14:16:59.224Z,26.00
2023-05-21T14:19:32.334Z,26.10
2023-05-21T14:22:02.613Z,26.00
2023-05-21T14:24:32.729Z,26.00
2023-05-21T14:27:02.850Z,26.00
2023-05-21T14:29:33.461Z,26.10
2023-05-21T14:32:03.556Z,26.10
2023-05-21T14:34:36.260Z,26.00
2023-05-21T14:37:06.353Z,26.00
2023-05-21T14:39:36.506Z,26.00
2023-05-21T14:42:07.453Z,26.10
2023-05-21T14:44:37.500Z,26.10
2023-05-21T14:47:07.926Z,26.10
2023-05-21T14:49:40.621Z,26.10
2023-05-21T14:52:10.933Z,26.10
2023-05-21T14:54:41.058Z,26.10
2023-05-21T14:57:11.268Z,26.10
2023-05-21T14:59:41.355Z,26.10
2023-05-21T15:02:11.501Z,26.00
2023-05-21T15:04:44.158Z,26.00
2023-05-21T15:07:14.217Z,26.00
2023-05-21T15:09:44.301Z,26.00
2023-05-21T15:12:14.445Z,26.00
2023-05-21T15:14:44.645Z,26.10
2023-05-21T15:17:14.727Z,26.10
2023-05-21T15:19:47.381Z,26.10
2023-05-21T15:22:17.768Z,26.00
2023-05-21T15:24:47.918Z,26.00
2023-05-21T15:27:18.080Z,26.00
2023-05-21T15:29:49.521Z,25.90
2023-05-21T15:32:20.933Z,25.90
2023-05-21T15:34:54.384Z,25.90
2023-05-21T15:37:24.602Z,25.90
2023-05-21T15:39:54.930Z,25.90
2023-05-21T15:42:24.983Z,25.90
2023-05-21T15:44:55.049Z,25.90
2023-05-21T15:47:25.159Z,25.90
2023-05-21T15:49:58.949Z,25.90
2023-05-21T15:52:29.160Z,25.80
2023-05-21T15:54:59.257Z,25.80
2023-05-21T15:57:29.388Z,25.70
2023-05-21T15:59:59.645Z,25.70
2023-05-21T16:02:29.913Z,25.60
2023-05-21T16:05:02.580Z,25.60
2023-05-21T16:07:32.660Z,25.50
2023-05-21T16:10:02.710Z,25.50
2023-05-21T16:12:32.789Z,25.50
2023-05-21T16:15:02.866Z,25.40
2023-05-21T16:17:33.030Z,25.40
2023-05-21T16:20:05.781Z,25.40
2023-05-21T16:22:35.886Z,25.30
2023-05-21T16:25:06.257Z,25.20
2023-05-21T16:27:36.458Z,25.30
2023-05-21T16:30:07.675Z,25.20
2023-05-21T16:32:39.703Z,25.20
2023-05-21T16:35:12.642Z,25.20
2023-05-21T16:37:42.688Z,25.10
2023-05-21T16:40:14.582Z,25.10
2023-05-21T16:42:44.792Z,25.10
2023-05-21T16:45:20.647Z,25.00
2023-05-21T16:47:51.354Z,24.90
2023-05-21T16:50:24.121Z,24.90
2023-05-21T16:52:54.187Z,24.80
2023-05-21T16:55:24.647Z,24.80
2023-05-21T16:57:54.718Z,24.80
2023-05-21T17:00:25.054Z,24.70
2023-05-21T17:02:55.631Z,24.70
2023-05-21T17:05:28.471Z,24.70
2023-05-21T17:07:58.707Z,24.60
2023-05-21T17:10:28.924Z,24.60
2023-05-21T17:13:01.828Z,24.50
2023-05-21T17:15:37.084Z,24.50
2023-05-21T17:18:07.330Z,24.40
2023-05-21T17:20:40.041Z,24.40
2023-05-21T17:23:10.150Z,24.40
2023-05-21T17:25:40.957Z,24.30
2023-05-21T17:28:11.435Z,24.30
2023-05-21T17:30:41.822Z,24.20
2023-05-21T17:33:12.355Z,24.20
2023-05-21T17:35:45.111Z,24.10
2023-05-21T17:38:15.247Z,24.10
2023-05-21T17:40:45.309Z,24.10
2023-05-21T17:43:15.385Z,24.00
2023-05-21T17:45:46.568Z,23.90
2023-05-21T17:48:16.790Z,23.90
2023-05-21T17:50:49.541Z,23.90
2023-05-21T17:53:19.737Z,23.80
2023-05-21T17:55:50.079Z,23.80
2023-05-21T17:58:20.129Z,23.70
2023-05-21T18:00:50.252Z,23.70
2023-05-21T18:03:21.159Z,23.60
2023-05-21T18:05:54.028Z,23.60
2023-05-21T18:08:24.227Z,23.50
2023-05-21T18:10:54.376Z,23.50
2023-05-21T18:13:24.413Z,23.40
2023-05-21T18:15:56.427Z,23.30
2023-05-21T18:18:26.682Z,23.30
2023-05-21T18:20:59.441Z,23.20
2023-05-21T18:23:31.439Z,23.20
2023-05-21T18:26:01.561Z,23.20
2023-05-21T18:28:32.598Z,23.10
2023-05-21T18:31:04.430Z,23.10
2023-05-21T18:33:34.608Z,23.10
2023-05-21T18:36:08.048Z,23.00
2023-05-21T18:38:38.417Z,23.00
2023-05-21T18:41:08.880Z,22.90
2023-05-21T18:43:39.199Z,22.80
2023-05-21T18:46:09.324Z,22.80
2023-05-21T18:48:39.414Z,22.80
2023-05-21T18:51:12.146Z,22.70
2023-05-21T18:53:42.665Z,22.70
2023-05-21T18:56:15.242Z,22.60
2023-05-21T18:58:47.808Z,22.60
2023-05-21T19:01:18.370Z,22.50
2023-05-21T19:03:51.518Z,22.50
2023-05-21T19:06:25.809Z,22.40
2023-05-21T19:08:55.744Z,22.40
2023-05-21T19:11:31.118Z,22.30
2023-05-21T19:14:02.580Z,22.30
2023-05-21T19:16:33.005Z,22.20
2023-05-21T19:19:03.476Z,22.20
2023-05-21T19:21:37.201Z,22.20
2023-05-21T19:24:09.008Z,22.10
2023-05-21T19:26:39.099Z,22.10
2023-05-21T19:29:09.761Z,22.10
2023-05-21T19:31:40.276Z,22.00
2023-05-21T19:34:11.216Z,22.00
2023-05-21T19:36:53.037Z,21.90
2023-05-21T19:39:24.289Z,21.90
2023-05-21T19:41:54.499Z,21.80
2023-05-21T19:44:24.594Z,21.70
2023-05-21T19:46:54.743Z,21.70
2023-05-21T19:49:24.836Z,21.70
2023-05-21T19:51:59.394Z,21.60
2023-05-21T19:54:29.497Z,21.60
2023-05-21T19:57:00.293Z,21.50
2023-05-21T19:59:30.382Z,21.50
2023-05-21T20:02:00.509Z,21.40
2023-05-21T20:04:30.673Z,21.40
2023-05-21T20:07:03.334Z,21.30
2023-05-21T20:09:33.798Z,21.20
2023-05-21T20:12:04.002Z,21.20
2023-05-21T20:14:34.569Z,21.20
2023-05-21T20:17:05.835Z,21.10
2023-05-21T20:19:37.955Z,21.00
2023-05-21T20:22:11.122Z,21.00
2023-05-21T20:24:41.201Z,21.00
2023-05-21T20:27:11.493Z,20.90
2023-05-21T20:29:43.049Z,20.90
2023-05-21T20:32:13.327Z,20.90
2023-05-21T20:34:58.333Z,20.90
2023-05-21T20:37:36.967Z,20.80
2023-05-21T20:40:07.392Z,20.70
2023-05-21T20:42:37.538Z,20.80
2023-05-21T20:45:08.909Z,20.70
2023-05-21T20:47:39.030Z,20.70
2023-05-21T20:50:10.245Z,20.70
2023-05-21T20:52:45.515Z,20.60
2023-05-21T20:55:17.153Z,20.60
2023-05-21T20:57:47.408Z,20.60
2023-05-21T21:00:18.350Z,20.50
2023-05-21T21:02:48.470Z,20.50
2023-05-21T21:05:20.306Z,20.50
2023-05-21T21:07:55.513Z,20.50
2023-05-21T21:10:25.924Z,20.50
2023-05-21T21:12:56.100Z,20.40
2023-05-21T21:15:26.205Z,20.40
2023-05-21T21:17:56.337Z,20.40
2023-05-21T21:20:27.052Z,20.30
2023-05-21T21:22:59.725Z,20.30
2023-05-21T21:25:29.831Z,20.30
2023-05-21T21:27:59.909Z,20.20
2023-05-21T21:30:29.996Z,20.20
2023-05-21T21:33:00.230Z,20.20
2023-05-21T21:35:30.533Z,20.10
2023-05-21T21:38:05.115Z,20.10
2023-05-21T21:40:35.218Z,20.10
2023-05-21T21:43:05.307Z,20.10
2023-05-21T21:45:35.480Z,20.10
2023-05-21T21:48:05.679Z,20.00
2023-05-21T21:50:36.026Z,20.00
2023-05-21T21:53:10.038Z,20.00
2023-05-21T21:55:40.081Z,20.00
2023-05-21T21:58:10.205Z,20.00
2023-05-21T22:00:40.552Z,20.00
2023-05-21T22:03:14.405Z,19.90
2023-05-21T22:05:45.059Z,19.90
2023-05-21T22:08:17.795Z,19.90
2023-05-21T22:10:47.833Z,19.90
2023-05-21T22:13:17.912Z,19.90
2023-05-21T22:15:49.261Z,19.90
2023-05-21T22:18:28.436Z,19.80
2023-05-21T22:21:10.149Z,19.80
2023-05-21T22:23:43.335Z,19.70
2023-05-21T22:26:13.551Z,19.70
2023-05-21T22:28:43.647Z,19.70
2023-05-21T22:31:13.814Z,19.70
2023-05-21T22:33:43.914Z,19.60
2023-05-21T22:36:14.224Z,19.70
2023-05-21T22:38:47.016Z,19.60
2023-05-21T22:41:17.104Z,19.60
2023-05-21T22:43:47.151Z,19.60
2023-05-21T22:46:17.386Z,19.60
2023-05-21T22:48:47.524Z,19.60
2023-05-21T22:51:17.692Z,19.60
2023-05-21T22:53:50.484Z,19.60
2023-05-21T22:56:21.179Z,19.50
2023-05-21T22:58:51.442Z,19.50
2023-05-21T23:01:21.653Z,19.50
2023-05-21T23:03:51.804Z,19.50
2023-05-21T23:06:22.001Z,19.50
2023-05-21T23:08:54.681Z,19.40
2023-05-21T23:11:27.599Z,19.40
2023-05-21T23:13:57.656Z,19.40
2023-05-21T23:16:30.902Z,19.40
2023-05-21T23:19:01.398Z,19.30
2023-05-21T23:21:31.745Z,19.30
2023-05-21T23:24:04.480Z,19.30
2023-05-21T23:26:34.650Z,19.30
2023-05-21T23:29:05.495Z,19.30
2023-05-21T23:31:35.843Z,19.20
2023-05-21T23:34:06.420Z,19.20
2023-05-21T23:36:36.511Z,19.20
2023-05-21T23:39:09.423Z,19.20
2023-05-21T23:41:39.942Z,19.20
2023-05-21T23:44:10.040Z,19.20
2023-05-21T23:46:40.084Z,19.10
2023-05-21T23:49:10.253Z,19.10
2023-05-21T23:51:40.489Z,19.10
2023-05-21T23:54:13.174Z,19.10
2023-05-21T23:56:43.758Z,19.10
2023-05-21T23:59:15.090Z,19.00
